Time;durP1;ratioP1;P1;durP2;ratioP2;P2;SDS_P1;SDS_P2;PMS_P1;PMS_P2;Temp;Humidity;BMP_temperature;BMP_pressure;BME280_temperature;BME280_humidity;BME280_pressure;Samples;Min_cycle;Max_cycle;Signal;HPM_P1;HPM_P2
2022/03/16 00:00:09;;;;;;;52.08;28.55;;;5.70;99.90;;;;;;5016563;28;20049;-86
2022/03/16 00:02:42;;;;;;;39.90;25.80;;;5.70;99.90;;;;;;5017536;28;20060;-86
2022/03/16 00:05:09;;;;;;;42.30;27.52;;;5.70;99.90;;;;;;5016623;28;20045;-86
2022/03/16 00:07:36;;;;;;;46.78;27.83;;;5.70;99.90;;;;;;5015426;28;20111;-86
2022/03/16 00:10:04;;;;;;;44.33;27.17;;;5.70;99.90;;;;;;5016571;28;20104;-86
2022/03/16 00:12:31;;;;;;;49.40;26.90;;;5.70;99.90;;;;;;5032779;28;20053;-86
2022/03/16 00:14:58;;;;;;;41.40;26.88;;;5.60;99.90;;;;;;5036196;28;20095;-86
2022/03/16 00:17:24;;;;;;;41.97;26.45;;;5.70;99.90;;;;;;5016569;28;20057;-86
2022/03/16 00:19:51;;;;;;;41.38;27.77;;;5.70;99.90;;;;;;5016783;28;20553;-86
2022/03/16 00:22:18;;;;;;;41.10;25.02;;;5.70;99.90;;;;;;5016056;28;20049;-86
2022/03/16 00:24:45;;;;;;;40.88;25.30;;;5.70;99.90;;;;;;5016328;28;20053;-86
2022/03/16 00:27:11;;;;;;;61.13;27.83;;;5.70;99.90;;;;;;5016309;28;20046;-86
2022/03/16 00:29:38;;;;;;;38.35;23.75;;;5.60;99.90;;;;;;5016443;28;20560;-85
2022/03/16 00:32:06;;;;;;;39.35;24.70;;;5.70;99.90;;;;;;5033705;28;20053;-86
2022/03/16 00:34:33;;;;;;;38.35;24.45;;;5.70;99.90;;;;;;5016498;28;20053;-86
2022/03/16 00:37:00;;;;;;;35.17;22.15;;;5.70;99.90;;;;;;5033552;28;20057;-86
2022/03/16 00:39:27;;;;;;;38.15;22.83;;;5.70;99.90;;;;;;5033362;28;20049;-86
2022/03/16 00:41:55;;;;;;;38.30;23.65;;;5.70;99.90;;;;;;5033045;28;20045;-86
2022/03/16 00:44:21;;;;;;;32.50;22.80;;;5.70;99.90;;;;;;5033569;28;20113;-86
2022/03/16 00:46:48;;;;;;;37.78;23.75;;;5.60;99.90;;;;;;5016110;28;20045;-86
2022/03/16 00:49:15;;;;;;;37.22;22.67;;;5.70;99.90;;;;;;5016187;28;20076;-86
2022/03/16 00:51:42;;;;;;;37.75;23.55;;;5.60;99.90;;;;;;5015894;28;20494;-86
2022/03/16 00:54:09;;;;;;;39.45;24.35;;;5.60;99.90;;;;;;5033218;28;20051;-86
2022/03/16 00:56:37;;;;;;;41.55;24.05;;;5.70;99.90;;;;;;5015810;28;20057;-86
2022/03/16 00:59:03;;;;;;;37.13;23.90;;;5.70;99.90;;;;;;5015886;28;20053;-86
2022/03/16 01:01:30;;;;;;;36.35;23.50;;;5.70;99.90;;;;;;5015858;28;20083;-86
2022/03/16 01:03:57;;;;;;;32.00;21.45;;;5.60;99.90;;;;;;5033064;28;20136;-85
2022/03/16 01:06:24;;;;;;;35.47;22.95;;;5.60;99.90;;;;;;5033235;28;20050;-86
2022/03/16 01:08:51;;;;;;;35.65;24.05;;;5.60;99.90;;;;;;5015508;28;20405;-86
2022/03/16 01:11:18;;;;;;;39.13;23.42;;;5.60;99.90;;;;;;5015670;28;20042;-86
2022/03/16 01:13:46;;;;;;;37.95;23.73;;;5.60;99.90;;;;;;5015449;28;20057;-86
2022/03/16 01:16:13;;;;;;;42.58;23.63;;;5.60;99.90;;;;;;5015724;28;20046;-86
2022/03/16 01:18:40;;;;;;;40.05;23.33;;;5.50;99.90;;;;;;5015368;28;20115;-86
2022/03/16 01:21:08;;;;;;;37.20;23.33;;;5.40;99.90;;;;;;5015278;28;20049;-86
2022/03/16 01:23:36;;;;;;;35.22;23.52;;;5.40;99.90;;;;;;5015310;28;20507;-86
2022/03/16 01:26:06;;;;;;;35.67;22.75;;;5.40;99.90;;;;;;5015531;28;20045;-86
2022/03/16 01:28:33;;;;;;;50.45;24.83;;;5.40;99.90;;;;;;5035934;28;20050;-86
2022/03/16 01:31:01;;;;;;;33.70;21.60;;;5.30;99.90;;;;;;5015254;28;20528;-87
2022/03/16 01:33:29;;;;;;;36.15;23.13;;;5.20;99.90;;;;;;5033279;28;20401;-86
2022/03/16 01:35:57;;;;;;;36.50;23.90;;;5.30;99.90;;;;;;5015479;28;20053;-86
2022/03/16 01:38:24;;;;;;;41.15;25.48;;;5.30;99.90;;;;;;5016014;28;20049;-86
2022/03/16 01:40:51;;;;;;;39.35;25.10;;;5.30;99.90;;;;;;5015474;28;20404;-86
2022/03/16 01:43:18;;;;;;;40.33;24.95;;;5.40;99.90;;;;;;5015331;28;20132;-87
2022/03/16 01:45:47;;;;;;;38.58;23.75;;;5.40;99.90;;;;;;5032715;28;20060;-86
2022/03/16 01:48:14;;;;;;;37.70;24.85;;;5.40;99.90;;;;;;5015408;28;20144;-86
2022/03/16 01:50:41;;;;;;;38.63;23.92;;;5.40;99.90;;;;;;5015181;28;20140;-86
2022/03/16 01:53:08;;;;;;;34.85;23.08;;;5.40;99.90;;;;;;5015529;28;20081;-86
2022/03/16 01:55:35;;;;;;;32.92;22.40;;;5.40;99.90;;;;;;5032970;28;20045;-87
2022/03/16 01:58:01;;;;;;;38.42;23.55;;;5.40;99.90;;;;;;5032665;28;20061;-86
2022/03/16 02:00:28;;;;;;;35.33;23.13;;;5.40;99.90;;;;;;5015377;28;20075;-86
2022/03/16 02:02:55;;;;;;;39.60;23.90;;;5.40;99.90;;;;;;5014750;28;20054;-86
2022/03/16 02:05:22;;;;;;;38.00;24.75;;;5.30;99.90;;;;;;5032389;28;20053;-85
2022/03/16 02:07:50;;;;;;;38.35;23.98;;;5.30;99.90;;;;;;5032834;28;20421;-86
2022/03/16 02:10:17;;;;;;;36.22;23.42;;;5.30;99.90;;;;;;5032804;28;20412;-87
2022/03/16 02:12:47;;;;;;;37.22;23.20;;;5.30;99.90;;;;;;5015114;28;20056;-86
2022/03/16 02:15:14;;;;;;;33.88;22.48;;;5.20;99.90;;;;;;5015197;28;20064;-86
2022/03/16 02:17:41;;;;;;;39.30;22.85;;;5.10;99.90;;;;;;5014921;28;20091;-86
2022/03/16 02:20:09;;;;;;;39.65;24.00;;;5.10;99.90;;;;;;5015160;28;20156;-86
2022/03/16 02:22:45;;;;;;;41.40;24.15;;;5.10;99.90;;;;;;5014834;28;20049;-86
2022/03/16 02:25:12;;;;;;;40.33;25.15;;;5.10;99.90;;;;;;5032430;28;20041;-86
2022/03/16 02:27:40;;;;;;;38.03;24.83;;;5.10;99.90;;;;;;5032405;28;20141;-86
2022/03/16 02:30:07;;;;;;;40.70;24.73;;;5.20;99.90;;;;;;5015296;28;20059;-86
2022/03/16 02:32:34;;;;;;;42.00;23.55;;;5.10;99.90;;;;;;5018406;28;20050;-86
2022/03/16 02:35:02;;;;;;;39.25;23.30;;;;;;;;;;5018546;28;20049;-86
2022/03/16 02:37:29;;;;;;;44.47;24.10;;;5.10;99.90;;;;;;5035873;28;20402;-86
2022/03/16 02:39:55;;;;;;;40.33;24.13;;;5.10;99.90;;;;;;5018667;28;20420;-86
2022/03/16 02:42:23;;;;;;;39.88;23.23;;;5.00;99.90;;;;;;5038387;28;20125;-86
2022/03/16 02:44:49;;;;;;;45.17;24.75;;;5.00;99.90;;;;;;5036336;28;20143;-86
2022/03/16 02:47:16;;;;;;;39.53;23.70;;;5.00;99.90;;;;;;5018209;28;20045;-86
2022/03/16 02:49:43;;;;;;;39.78;24.42;;;5.00;99.90;;;;;;5035242;28;20509;-86
2022/03/16 02:52:10;;;;;;;46.17;24.92;;;5.00;99.90;;;;;;5017975;28;20056;-86
2022/03/16 02:54:37;;;;;;;47.80;26.30;;;5.00;99.90;;;;;;5018357;28;20077;-86
2022/03/16 02:57:05;;;;;;;42.35;25.52;;;5.00;99.90;;;;;;5035286;28;20056;-86
2022/03/16 02:59:32;;;;;;;46.35;24.55;;;5.00;99.90;;;;;;5018031;28;20049;-86
2022/03/16 03:01:58;;;;;;;41.70;24.27;;;5.00;99.90;;;;;;5035077;28;20053;-86
2022/03/16 03:04:25;;;;;;;40.00;23.65;;;5.00;99.90;;;;;;5035186;28;20056;-86
2022/03/16 03:06:53;;;;;;;44.63;23.98;;;4.90;99.90;;;;;;5019011;28;20054;-86
2022/03/16 03:09:19;;;;;;;42.28;22.83;;;4.90;99.90;;;;;;5035556;28;20051;-86
2022/03/16 03:11:46;;;;;;;38.85;23.73;;;4.80;99.90;;;;;;5017304;28;20053;-86
2022/03/16 03:14:13;;;;;;;39.05;23.15;;;4.70;99.90;;;;;;5017284;28;20140;-86
2022/03/16 03:16:40;;;;;;;41.88;22.55;;;4.60;99.90;;;;;;5017571;28;20402;-86
2022/03/16 03:19:07;;;;;;;41.20;23.60;;;4.50;99.90;;;;;;5017038;28;20049;-86
2022/03/16 03:21:33;;;;;;;46.65;25.15;;;4.60;99.90;;;;;;5034695;28;20139;-86
2022/03/16 03:24:00;;;;;;;49.72;24.02;;;4.60;99.90;;;;;;5016992;28;20049;-86
2022/03/16 03:26:32;;;;;;;49.08;26.38;;;4.60;99.90;;;;;;5018276;28;20053;-86
2022/03/16 03:28:59;;;;;;;68.85;28.60;;;4.70;99.90;;;;;;5017338;28;20123;-86
2022/03/16 03:31:26;;;;;;;52.25;25.27;;;4.60;99.90;;;;;;5017177;28;20397;-86
2022/03/16 03:33:52;;;;;;;62.05;27.63;;;4.70;99.90;;;;;;5034252;28;20077;-86
2022/03/16 03:36:19;;;;;;;46.97;25.08;;;4.70;99.90;;;;;;5017142;28;20053;-86
2022/03/16 03:38:46;;;;;;;55.10;26.02;;;4.70;99.90;;;;;;5017038;28;20136;-86
2022/03/16 03:41:13;;;;;;;60.22;26.50;;;4.70;99.90;;;;;;5034107;28;20057;-86
2022/03/16 03:43:40;;;;;;;56.97;26.65;;;;;;;;;;5017247;28;20049;-86
2022/03/16 03:46:09;;;;;;;56.83;27.83;;;;;;;;;;5017358;28;20049;-86
2022/03/16 03:48:37;;;;;;;38.97;22.75;;;4.80;99.90;;;;;;5017080;28;20056;-86
2022/03/16 03:51:04;;;;;;;41.47;23.55;;;4.80;99.90;;;;;;5016680;28;20045;-86
2022/03/16 03:53:30;;;;;;;51.15;25.00;;;4.80;99.90;;;;;;5017121;28;20450;-86
2022/03/16 03:55:57;;;;;;;41.15;24.45;;;4.80;99.90;;;;;;5018074;28;20045;-86
2022/03/16 03:58:24;;;;;;;38.95;22.98;;;4.80;99.90;;;;;;5018423;28;20147;-86
2022/03/16 04:00:51;;;;;;;39.50;22.27;;;4.80;99.90;;;;;;5016622;28;20048;-86
2022/03/16 04:03:18;;;;;;;51.13;23.98;;;4.80;99.90;;;;;;5016767;28;20128;-86
2022/03/16 04:05:45;;;;;;;62.30;26.95;;;4.80;99.90;;;;;;5033846;28;20144;-86
2022/03/16 04:08:11;;;;;;;49.58;24.65;;;4.80;99.90;;;;;;5034106;28;20460;-86
2022/03/16 04:10:39;;;;;;;69.40;27.85;;;4.70;99.90;;;;;;5016672;28;20055;-86
2022/03/16 04:13:05;;;;;;;68.75;27.85;;;4.60;99.90;;;;;;5016544;28;20133;-86
2022/03/16 04:15:33;;;;;;;93.15;30.45;;;4.60;99.90;;;;;;5016650;28;20075;-86
2022/03/16 04:17:59;;;;;;;114.53;32.95;;;4.60;99.90;;;;;;5016343;28;20061;-86
2022/03/16 04:20:27;;;;;;;82.97;31.95;;;4.50;99.90;;;;;;5016386;28;20049;-84
2022/03/16 04:22:53;;;;;;;71.47;31.38;;;4.50;99.90;;;;;;5016161;28;20059;-86
2022/03/16 04:25:20;;;;;;;64.18;29.35;;;4.50;99.90;;;;;;5016139;28;20501;-86
2022/03/16 04:27:47;;;;;;;80.72;32.33;;;4.60;99.90;;;;;;5016274;28;20045;-86
2022/03/16 04:30:14;;;;;;;113.20;35.25;;;4.60;99.90;;;;;;5015958;28;20049;-86
2022/03/16 04:32:41;;;;;;;76.63;33.15;;;4.50;99.90;;;;;;5016476;28;20056;-86
2022/03/16 04:35:09;;;;;;;86.78;34.65;;;4.40;99.90;;;;;;5016393;28;20496;-86
2022/03/16 04:37:36;;;;;;;91.45;34.00;;;4.50;99.90;;;;;;5016494;28;20129;-87
2022/03/16 04:40:03;;;;;;;80.07;34.10;;;4.50;99.90;;;;;;5033680;28;20129;-86
2022/03/16 04:42:30;;;;;;;83.90;33.45;;;4.60;99.90;;;;;;5016560;28;20050;-87
2022/03/16 04:44:57;;;;;;;114.43;36.80;;;4.60;99.90;;;;;;5033491;28;20132;-86
2022/03/16 04:47:24;;;;;;;87.57;32.63;;;4.60;99.90;;;;;;5016082;28;20067;-86
2022/03/16 04:49:50;;;;;;;88.00;34.08;;;4.70;99.90;;;;;;5015595;28;20119;-86
2022/03/16 04:52:17;;;;;;;85.28;35.45;;;4.70;99.90;;;;;;5033414;28;20136;-86
2022/03/16 04:54:44;;;;;;;86.95;35.95;;;4.70;99.90;;;;;;5016043;28;20046;-86
2022/03/16 04:57:11;;;;;;;74.38;35.17;;;4.70;99.90;;;;;;5016122;28;20049;-86
2022/03/16 04:59:38;;;;;;;126.13;38.47;;;4.80;99.90;;;;;;5033492;28;20055;-86
2022/03/16 05:02:05;;;;;;;88.00;37.22;;;4.80;99.90;;;;;;5033072;28;20048;-86
2022/03/16 05:04:33;;;;;;;77.18;35.05;;;4.90;99.90;;;;;;5016031;28;20489;-86
2022/03/16 05:07:02;;;;;;;70.43;33.63;;;5.00;99.90;;;;;;5032916;28;20152;-86
2022/03/16 05:09:29;;;;;;;63.75;32.50;;;4.90;99.90;;;;;;5016561;28;20366;-86
2022/03/16 05:11:55;;;;;;;70.70;33.25;;;5.00;99.90;;;;;;5019174;28;20053;-83
2022/03/16 05:14:22;;;;;;;82.70;37.03;;;5.00;99.90;;;;;;5032766;28;20129;-86
2022/03/16 05:16:49;;;;;;;72.63;35.20;;;;;;;;;;5015478;28;20128;-86
2022/03/16 05:19:16;;;;;;;67.93;34.83;;;5.00;99.90;;;;;;5016097;28;20081;-86
2022/03/16 05:21:43;;;;;;;74.18;36.63;;;4.90;99.90;;;;;;5032895;28;20160;-86
2022/03/16 05:24:10;;;;;;;70.10;34.85;;;4.90;99.90;;;;;;5015976;28;20085;-86
2022/03/16 05:26:37;;;;;;;65.28;34.30;;;4.90;99.90;;;;;;5016144;28;20052;-86
2022/03/16 05:29:05;;;;;;;70.40;32.72;;;5.00;99.90;;;;;;5015665;28;20053;-86
2022/03/16 05:31:32;;;;;;;68.60;31.65;;;5.00;99.90;;;;;;5033429;28;20049;-86
2022/03/16 05:33:59;;;;;;;56.38;29.17;;;5.00;99.90;;;;;;5015704;28;20049;-86
2022/03/16 05:36:26;;;;;;;52.88;28.58;;;5.00;99.90;;;;;;5015966;28;20123;-86
2022/03/16 05:38:52;;;;;;;61.70;33.25;;;4.90;99.90;;;;;;5033183;28;20056;-86
2022/03/16 05:41:19;;;;;;;57.05;29.20;;;4.90;99.90;;;;;;5015492;28;20096;-86
2022/03/16 05:43:46;;;;;;;59.40;30.95;;;4.90;99.90;;;;;;5015625;28;20057;-86
2022/03/16 05:46:13;;;;;;;52.13;28.08;;;4.90;99.90;;;;;;5015793;28;20085;-86
2022/03/16 05:48:39;;;;;;;57.95;28.10;;;4.90;99.90;;;;;;5015637;28;20053;-86
2022/03/16 05:51:08;;;;;;;57.08;28.90;;;4.80;99.90;;;;;;5014862;28;20136;-86
2022/03/16 05:53:35;;;;;;;55.08;28.33;;;4.90;99.90;;;;;;5015833;28;20081;-86
2022/03/16 05:56:02;;;;;;;53.97;28.65;;;4.90;99.90;;;;;;5015393;28;20132;-86
2022/03/16 05:58:28;;;;;;;56.20;29.73;;;5.00;99.90;;;;;;5015475;28;20059;-86
2022/03/16 06:00:55;;;;;;;56.80;28.90;;;5.00;99.90;;;;;;5032761;28;20056;-86
2022/03/16 06:03:22;;;;;;;56.65;28.75;;;5.00;99.90;;;;;;5015300;28;20128;-86
2022/03/16 06:05:49;;;;;;;53.15;29.65;;;5.00;99.90;;;;;;5018282;28;20057;-87
2022/03/16 06:08:16;;;;;;;55.92;28.42;;;5.00;99.90;;;;;;5019046;28;20054;-86
2022/03/16 06:10:43;;;;;;;55.00;29.55;;;5.00;99.90;;;;;;5036670;28;20077;-86
2022/03/16 06:13:09;;;;;;;54.47;28.98;;;5.10;99.90;;;;;;5019103;28;20046;-86
2022/03/16 06:15:42;;;;;;;49.67;27.52;;;5.10;99.90;;;;;;5019226;28;20120;-86
2022/03/16 06:18:09;;;;;;;51.10;28.60;;;5.10;99.90;;;;;;5028852;28;20382;-87
2022/03/16 06:20:37;;;;;;;279.80;163.70;;;5.20;99.90;;;;;;5036538;28;20560;-86
2022/03/16 06:23:05;;;;;;;165.30;95.03;;;5.30;99.90;;;;;;5037987;28;20057;-86
2022/03/16 06:25:36;;;;;;;112.97;81.68;;;5.30;99.90;;;;;;5033336;28;20053;-87
2022/03/16 06:28:03;;;;;;;68.30;46.08;;;5.40;99.90;;;;;;5019688;28;20055;-87
2022/03/16 06:30:30;;;;;;;62.60;39.95;;;5.40;99.90;;;;;;5018828;28;20164;-86
2022/03/16 06:32:57;;;;;;;57.28;32.53;;;5.50;99.90;;;;;;5036007;28;20124;-86
2022/03/16 06:35:23;;;;;;;52.30;28.95;;;5.60;99.90;;;;;;5036339;28;20053;-86
2022/03/16 06:37:50;;;;;;;44.40;25.88;;;5.60;99.90;;;;;;5018363;28;20050;-86
2022/03/16 06:40:17;;;;;;;46.13;26.27;;;5.50;99.90;;;;;;5017536;28;20414;-87
2022/03/16 06:42:50;;;;;;;45.92;25.17;;;5.50;99.90;;;;;;5018292;28;20047;-86
2022/03/16 06:45:17;;;;;;;48.40;27.30;;;5.40;99.90;;;;;;5035629;28;20481;-86
2022/03/16 06:47:44;;;;;;;53.20;28.95;;;5.40;99.90;;;;;;5018528;28;20557;-86
2022/03/16 06:50:11;;;;;;;55.97;33.10;;;5.50;99.90;;;;;;5035483;28;20059;-86
2022/03/16 06:52:39;;;;;;;46.67;29.15;;;5.60;99.90;;;;;;5035378;28;20452;-86
2022/03/16 06:55:10;;;;;;;47.00;28.40;;;5.60;99.90;;;;;;5017938;28;20171;-86
2022/03/16 06:57:37;;;;;;;44.53;26.20;;;5.70;99.90;;;;;;5018099;28;20059;-86
2022/03/16 07:00:06;;;;;;;45.97;26.98;;;5.70;99.90;;;;;;5017999;28;20049;-86
2022/03/16 07:02:56;;;;;;;42.05;26.73;;;5.90;99.90;;;;;;5018022;28;20068;-86
2022/03/16 07:05:27;;;;;;;45.53;29.00;;;6.00;99.90;;;;;;5035106;28;20502;-86
2022/03/16 07:08:02;;;;;;;61.20;42.30;;;6.10;99.90;;;;;;5017897;28;20413;-86
2022/03/16 07:10:31;;;;;;;52.58;33.97;;;6.30;99.90;;;;;;5034965;28;20099;-87
2022/03/16 07:12:58;;;;;;;47.70;28.75;;;6.40;99.90;;;;;;5017677;28;20041;-87
2022/03/16 07:15:25;;;;;;;42.17;26.42;;;6.60;99.90;;;;;;5017267;28;20059;-87
2022/03/16 07:17:52;;;;;;;40.65;26.80;;;6.70;99.90;;;;;;5034664;28;20517;-86
2022/03/16 07:20:19;;;;;;;39.03;26.25;;;6.90;99.90;;;;;;5035064;28;20053;-86
2022/03/16 07:23:10;;;;;;;39.95;26.02;;;7.00;99.90;;;;;;5034973;28;20053;-87
2022/03/16 07:25:38;;;;;;;42.50;26.27;;;7.00;99.90;;;;;;5034982;28;20060;-86
2022/03/16 07:28:06;;;;;;;40.63;25.10;;;7.00;99.90;;;;;;5017281;28;20049;-86
2022/03/16 07:30:34;;;;;;;39.83;25.23;;;7.00;99.90;;;;;;5034563;28;20050;-87
2022/03/16 07:33:02;;;;;;;40.83;26.30;;;7.20;99.90;;;;;;5017320;28;20053;-86
2022/03/16 07:35:29;;;;;;;36.45;26.00;;;7.30;99.90;;;;;;5017531;28;20047;-87
2022/03/16 07:37:57;;;;;;;39.80;26.83;;;7.40;99.90;;;;;;5018725;28;20050;-86
2022/03/16 07:40:25;;;;;;;36.88;25.05;;;7.60;99.90;;;;;;5023088;28;20049;-86
2022/03/16 07:42:52;;;;;;;39.33;25.92;;;7.70;99.90;;;;;;5017311;28;20485;-87
2022/03/16 07:45:20;;;;;;;40.72;25.90;;;7.70;99.90;;;;;;5034775;28;20092;-86
2022/03/16 07:47:48;;;;;;;39.38;26.60;;;7.50;99.90;;;;;;5034716;28;20049;-86
2022/03/16 07:50:17;;;;;;;39.47;25.20;;;7.40;99.90;;;;;;5016654;28;20079;-86
2022/03/16 07:52:44;;;;;;;38.95;26.10;;;7.30;99.90;;;;;;5016876;28;20054;-87
2022/03/16 07:55:11;;;;;;;43.25;26.60;;;7.20;99.90;;;;;;5017029;28;20061;-86
2022/03/16 07:57:38;;;;;;;49.08;30.40;;;7.30;99.90;;;;;;5017169;28;20046;-87
2022/03/16 08:00:13;;;;;;;51.42;32.30;;;7.40;99.90;;;;;;5016915;28;20077;-86
2022/03/16 08:02:43;;;;;;;49.97;29.55;;;7.40;99.90;;;;;;5016576;28;20077;-87
2022/03/16 08:05:11;;;;;;;45.50;28.67;;;7.50;99.90;;;;;;5016566;28;20045;-86
2022/03/16 08:07:39;;;;;;;42.90;27.80;;;7.60;99.90;;;;;;5016168;28;20504;-86
2022/03/16 08:10:06;;;;;;;43.80;29.02;;;7.70;99.90;;;;;;5016836;28;20058;-87
2022/03/16 08:12:33;;;;;;;39.33;27.08;;;7.80;99.90;;;;;;5017023;28;20413;-87
2022/03/16 08:15:00;;;;;;;47.28;29.08;;;8.00;99.90;;;;;;5034139;28;20128;-87
2022/03/16 08:17:27;;;;;;;42.40;28.33;;;8.20;99.90;;;;;;5016935;28;20052;-87
2022/03/16 08:19:54;;;;;;;44.85;27.35;;;8.40;99.90;;;;;;5016230;28;20084;-87
2022/03/16 08:22:25;;;;;;;42.63;26.77;;;8.60;99.90;;;;;;5016438;28;20045;-87
2022/03/16 08:24:53;;;;;;;42.40;26.27;;;8.60;99.90;;;;;;5016578;28;20042;-87
2022/03/16 08:27:22;;;;;;;40.28;26.17;;;8.60;99.90;;;;;;5033514;28;20091;-87
2022/03/16 08:29:50;;;;;;;44.33;28.05;;;8.70;99.90;;;;;;5016126;28;20386;-87
2022/03/16 08:32:18;;;;;;;40.40;26.40;;;8.70;99.90;;;;;;5016330;28;20505;-87
2022/03/16 08:34:45;;;;;;;43.58;28.08;;;8.80;99.90;;;;;;5016120;28;20041;-87
2022/03/16 08:37:11;;;;;;;38.65;26.50;;;9.00;99.90;;;;;;5016543;28;20397;-87
2022/03/16 08:39:40;;;;;;;40.88;26.75;;;9.30;99.90;;;;;;5016575;28;20049;-87
2022/03/16 08:42:08;;;;;;;43.42;27.25;;;9.60;99.90;;;;;;5016138;28;20509;-87
2022/03/16 08:44:35;;;;;;;45.00;27.20;;;9.90;99.90;;;;;;5016698;28;20045;-87
2022/03/16 08:47:02;;;;;;;42.65;28.30;;;10.10;99.90;;;;;;5033300;28;20080;-87
2022/03/16 08:49:29;;;;;;;45.83;28.27;;;10.30;99.90;;;;;;5015711;28;20052;-87
2022/03/16 08:51:57;;;;;;;39.50;26.58;;;10.50;99.90;;;;;;5016863;28;20057;-87
2022/03/16 08:54:25;;;;;;;44.85;27.83;;;10.70;99.90;;;;;;5023666;28;20088;-87
2022/03/16 08:56:53;;;;;;;41.58;27.13;;;10.90;99.90;;;;;;5033885;28;20048;-87
2022/03/16 08:59:20;;;;;;;44.42;25.67;;;11.30;99.90;;;;;;5016194;28;20228;-87
2022/03/16 09:01:47;;;;;;;45.97;26.67;;;11.80;99.90;;;;;;5033180;28;20049;-87
2022/03/16 09:04:15;;;;;;;50.00;32.13;;;11.90;99.90;;;;;;5016028;28;20486;-87
2022/03/16 09:06:42;;;;;;;41.05;26.92;;;11.40;99.90;;;;;;5012115;28;20489;-88
2022/03/16 09:09:09;;;;;;;46.17;29.27;;;11.40;99.90;;;;;;4996713;28;20152;-87
2022/03/16 09:11:36;;;;;;;48.28;31.73;;;11.10;99.90;;;;;;5012516;28;20058;-87
2022/03/16 09:14:05;;;;;;;61.25;38.50;;;11.10;99.90;;;;;;5012345;28;20075;-87
2022/03/16 09:16:33;;;;;;;41.85;26.50;;;11.30;99.90;;;;;;5012510;28;20565;-87
2022/03/16 09:19:00;;;;;;;42.33;26.42;;;11.30;99.90;;;;;;4996213;28;20498;-88
2022/03/16 09:21:27;;;;;;;39.35;25.17;;;11.70;99.90;;;;;;4996374;28;20049;-88
2022/03/16 09:23:54;;;;;;;37.08;24.63;;;11.70;99.90;;;;;;4996392;28;20144;-87
2022/03/16 09:26:21;;;;;;;41.05;26.58;;;12.10;99.90;;;;;;5013584;28;20089;-88
2022/03/16 09:28:49;;;;;;;37.28;24.60;;;12.60;99.90;;;;;;4996074;28;20093;-86
2022/03/16 09:31:16;;;;;;;39.35;25.40;;;12.80;99.90;;;;;;5013137;28;20502;-85
2022/03/16 09:33:44;;;;;;;37.15;25.35;;;13.10;99.90;;;;;;5012612;28;20042;-87
2022/03/16 09:36:11;;;;;;;38.85;25.33;;;13.00;99.90;;;;;;5004708;28;20081;-88
2022/03/16 09:38:38;;;;;;;41.35;24.83;;;12.60;99.90;;;;;;5013567;28;20084;-87
2022/03/16 09:41:05;;;;;;;36.85;25.38;;;12.60;99.90;;;;;;4999792;28;20487;-87
2022/03/16 09:43:35;;;;;;;37.70;25.83;;;12.90;99.90;;;;;;5017160;28;20050;-87
2022/03/16 09:46:04;;;;;;;40.08;27.02;;;12.80;99.90;;;;;;5017347;28;20060;-88
2022/03/16 09:48:32;;;;;;;36.95;25.45;;;12.20;99.90;;;;;;5016400;28;20413;-87
2022/03/16 09:51:00;;;;;;;39.88;25.98;;;11.90;99.90;;;;;;5015309;28;20065;-87
2022/03/16 09:53:27;;;;;;;42.95;27.63;;;12.00;99.90;;;;;;5016043;28;20056;-87
2022/03/16 09:55:55;;;;;;;42.42;25.85;;;11.70;99.90;;;;;;5015896;28;20066;-87
2022/03/16 09:58:22;;;;;;;40.60;28.02;;;11.60;99.90;;;;;;4999777;28;20056;-87
2022/03/16 10:00:50;;;;;;;41.05;26.83;;;11.60;99.90;;;;;;5016077;28;20049;-87
2022/03/16 10:03:17;;;;;;;36.03;25.13;;;12.10;99.90;;;;;;5016167;28;20054;-88
2022/03/16 10:05:47;;;;;;;42.10;28.00;;;12.50;99.90;;;;;;5003838;28;20060;-88
2022/03/16 10:08:24;;;;;;;42.60;26.38;;;13.30;99.90;;;;;;5029630;28;20065;-87
2022/03/16 10:14:05;;;;;;;31.52;21.55;;;13.50;99.90;;;;;;5036644;28;20466;-88
2022/03/16 10:19:24;;;;;;;31.15;21.65;;;14.70;99.90;;;;;;5036643;28;20084;-86
2022/03/16 10:21:58;;;;;;;28.70;21.17;;;15.20;99.90;;;;;;5019424;28;20107;-86
2022/03/16 10:24:31;;;;;;;29.85;20.73;;;15.70;99.90;;;;;;5018849;28;20041;-88
2022/03/16 10:26:59;;;;;;;29.92;19.95;;;16.10;99.90;;;;;;5018809;28;20504;-85
2022/03/16 10:29:27;;;;;;;31.20;21.50;;;16.10;99.90;;;;;;5018659;28;20049;-86
2022/03/16 10:32:04;;;;;;;32.63;22.02;;;16.70;99.90;;;;;;5036019;28;20053;-86
2022/03/16 10:34:32;;;;;;;25.73;19.02;;;17.30;99.90;;;;;;5018628;28;20060;-86
2022/03/16 10:37:00;;;;;;;24.75;17.67;;;18.60;99.90;;;;;;5018727;28;20504;-86
2022/03/16 10:39:35;;;;;;;25.75;18.65;;;20.10;93.10;;;;;;5018900;28;20132;-86
2022/03/16 10:48:22;;;;;;;26.95;18.58;;;21.70;78.80;;;;;;5035645;28;20103;-86
2022/03/16 10:50:55;;;;;;;30.02;23.70;;;21.10;80.30;;;;;;5016998;28;20060;-87
2022/03/16 10:53:28;;;;;;;28.10;22.13;;;19.00;87.90;;;;;;5035865;28;20049;-86
2022/03/16 10:56:01;;;;;;;32.08;24.20;;;19.50;89.00;;;;;;5018543;28;20478;-87
2022/03/16 10:58:28;;;;;;;40.58;25.38;;;18.30;87.00;;;;;;5018398;28;20572;-86
2022/03/16 11:00:56;;;;;;;45.70;26.35;;;18.00;91.90;;;;;;5018213;28;20049;-86
2022/03/16 11:03:26;;;;;;;44.20;29.42;;;17.70;92.90;;;;;;5035638;28;20053;-86
2022/03/16 11:05:55;;;;;;;46.90;32.22;;;17.40;91.80;;;;;;5035078;28;20049;-86
2022/03/16 11:08:25;;;;;;;36.83;26.67;;;16.80;93.70;;;;;;5017946;28;20049;-85
2022/03/16 11:10:52;;;;;;;24.75;17.20;;;15.40;94.80;;;;;;5017706;28;20493;-88
2022/03/16 11:13:29;;;;;;;25.40;16.48;;;15.30;95.40;;;;;;5035685;28;20076;-88
2022/03/16 11:15:59;;;;;;;36.15;17.92;;;15.40;98.20;;;;;;5018110;28;20464;-88
2022/03/16 11:18:27;;;;;;;46.33;24.85;;;15.10;99.60;;;;;;5017995;28;20060;-87
2022/03/16 11:21:07;;;;;;;44.90;21.40;;;15.30;99.90;;;;;;5017890;28;20105;-88
2022/03/16 11:27:09;;;;;;;21.95;16.42;;;15.70;99.90;;;;;;5035367;28;20141;-88
2022/03/16 11:30:00;;;;;;;31.38;17.27;;;16.10;98.60;;;;;;5017618;28;20053;-88
2022/03/16 11:32:38;;;;;;;23.42;17.00;;;15.00;99.90;;;;;;5018682;28;20049;-88
2022/03/16 11:35:14;;;;;;;23.83;16.02;;;14.80;99.90;;;;;;5035275;28;20081;-89
2022/03/16 11:37:44;;;;;;;27.35;18.65;;;16.10;99.90;;;;;;5035315;28;20050;-88
2022/03/16 11:40:20;;;;;;;30.55;18.60;;;17.10;99.60;;;;;;5016637;28;20124;-86
2022/03/16 11:43:06;;;;;;;38.22;27.08;;;17.40;94.90;;;;;;5016959;28;20058;-85
2022/03/16 11:45:38;;;;;;;21.13;15.43;;;17.70;93.90;;;;;;5034641;28;20132;-86
2022/03/16 11:48:34;;;;;;;24.83;16.83;;;18.50;92.60;;;;;;5013205;28;20053;-85
2022/03/16 11:51:13;;;;;;;23.33;16.25;;;18.40;90.00;;;;;;5034544;28;20049;-85
2022/03/16 11:56:23;;;;;;;22.52;14.93;;;18.30;90.00;;;;;;5034580;28;20056;-86
2022/03/16 11:59:03;;;;;;;23.77;14.75;;;20.00;83.20;;;;;;5034571;28;20054;-86
2022/03/16 12:01:31;;;;;;;19.50;13.52;;;21.00;82.20;;;;;;5034195;28;20061;-86
2022/03/16 12:04:14;;;;;;;23.48;14.45;;;21.50;74.80;;;;;;5016633;28;20049;-86
2022/03/16 12:07:05;;;;;;;20.30;13.20;;;20.60;72.40;;;;;;5017052;28;20109;-87
2022/03/16 12:09:42;;;;;;;19.70;14.40;;;19.10;77.90;;;;;;5016422;28;20807;-87
2022/03/16 12:15:11;;;;;;;19.77;13.65;;;17.50;82.20;;;;;;5034429;28;20069;-86
2022/03/16 12:17:39;;;;;;;26.60;15.07;;;17.70;84.20;;;;;;5016833;28;20409;-86
2022/03/16 12:20:26;;;;;;;25.83;15.50;;;17.10;86.40;;;;;;5034005;28;20049;-85
2022/03/16 12:23:14;;;;;;;24.20;15.07;;;17.40;89.00;;;;;;5016812;28;20107;-86
2022/03/16 12:25:46;;;;;;;28.75;15.98;;;18.50;85.40;;;;;;5033972;28;20050;-86
2022/03/16 12:31:07;;;;;;;18.75;13.77;;;19.00;82.20;;;;;;5033985;28;20323;-86
2022/03/16 12:33:39;;;;;;;18.15;13.20;;;19.40;80.70;;;;;;5024316;28;20071;-86
2022/03/16 12:36:14;;;;;;;19.52;13.45;;;19.40;81.50;;;;;;5027616;28;20037;-86
2022/03/16 12:38:46;;;;;;;21.17;13.60;;;19.50;80.60;;;;;;5027865;28;20485;-86
2022/03/16 12:44:06;;;;;;;17.50;13.25;;;18.00;82.30;;;;;;5052816;28;20051;-86
2022/03/16 12:46:33;;;;;;;17.95;13.63;;;17.50;86.10;;;;;;5052257;28;20182;-87
2022/03/16 12:49:04;;;;;;;21.90;13.10;;;18.30;88.70;;;;;;5036025;28;20080;-86
2022/03/16 12:51:39;;;;;;;23.25;13.77;;;18.50;85.90;;;;;;5053341;28;20057;-86
2022/03/16 12:54:07;;;;;;;19.42;13.85;;;18.30;82.30;;;;;;5045014;28;20473;-87
2022/03/16 12:56:39;;;;;;;18.50;12.45;;;17.40;84.40;;;;;;5035575;28;20110;-86
2022/03/16 12:59:08;;;;;;;15.73;13.07;;;17.70;86.80;;;;;;5036148;28;20055;-87
2022/03/16 13:01:36;;;;;;;19.58;13.23;;;17.90;86.50;;;;;;5036111;28;20061;-86
2022/03/16 13:04:07;;;;;;;16.88;13.57;;;18.90;85.20;;;;;;5053713;28;20135;-86
2022/03/16 13:06:35;;;;;;;20.45;14.65;;;18.10;84.30;;;;;;5036056;28;20063;-87
2022/03/16 13:09:04;;;;;;;19.55;14.35;;;17.90;82.50;;;;;;5036424;28;20045;-86